Time;durP1;ratioP1;P1;durP2;ratioP2;P2;SDS_P1;SDS_P2;PMS_P1;PMS_P2;Temp;Humidity;BMP_temperature;BMP_pressure;BME280_temperature;BME280_humidity;BME280_pressure;Samples;Min_cycle;Max_cycle;Signal;HPM_P1;HPM_P2
2022/11/20 00:01:06;;;;;;;15.63;9.55;;;;;;;;;;5076965;28;20036;-60
2022/11/20 00:03:32;;;;;;;14.68;8.77;;;;;;;;;;5070918;28;20159;-61
2022/11/20 00:06:01;;;;;;;15.80;8.68;;;;;;;;;;5070799;28;20543;-58
2022/11/20 00:08:28;;;;;;;14.73;8.55;;;;;;;;;;5069877;28;20041;-59
2022/11/20 00:10:54;;;;;;;13.40;8.48;;;;;;;;;;5056376;28;20039;-58
2022/11/20 00:13:20;;;;;;;16.55;8.80;;;;;;;;;;5077944;28;20032;-58
2022/11/20 00:15:46;;;;;;;13.65;7.22;;;;;;;;;;5070512;28;20041;-60
2022/11/20 00:18:12;;;;;;;13.10;7.55;;;;;;;;;;5068939;28;20072;-59
2022/11/20 00:20:38;;;;;;;13.50;7.57;;;;;;;;;;5066053;28;20115;-59
2022/11/20 00:23:04;;;;;;;13.68;9.02;;;;;;;;;;5068768;28;20036;-60
2022/11/20 00:25:30;;;;;;;13.77;7.90;;;;;;;;;;5079335;28;20506;-60
2022/11/20 00:27:56;;;;;;;11.93;7.57;;;;;;;;;;5069851;28;20052;-59
2022/11/20 00:30:22;;;;;;;13.57;8.30;;;;;;;;;;5072396;28;20047;-60
2022/11/20 00:32:48;;;;;;;11.25;6.78;;;;;;;;;;5072746;28;20054;-60
2022/11/20 00:35:14;;;;;;;13.88;7.18;;;;;;;;;;5065272;28;20092;-59
2022/11/20 00:37:40;;;;;;;17.95;7.30;;;;;;;;;;5075614;28;20513;-59
2022/11/20 00:40:06;;;;;;;13.23;7.25;;;;;;;;;;5070559;28;20040;-57
2022/11/20 00:42:32;;;;;;;13.52;7.65;;;;;;;;;;5075662;28;20033;-60
2022/11/20 00:44:58;;;;;;;13.80;7.18;;;;;;;;;;5069059;28;20062;-58
2022/11/20 00:47:24;;;;;;;12.32;7.22;;;;;;;;;;5080950;28;20115;-60
2022/11/20 00:49:50;;;;;;;15.00;7.40;;;;;;;;;;5073887;28;20036;-57
2022/11/20 00:52:16;;;;;;;12.57;7.60;;;;;;;;;;5068933;28;20043;-60
2022/11/20 00:54:42;;;;;;;12.85;7.35;;;;;;;;;;5079557;28;20111;-59
2022/11/20 00:57:08;;;;;;;12.43;7.28;;;;;;;;;;5075248;28;20091;-60
2022/11/20 00:59:34;;;;;;;14.57;7.28;;;;;;;;;;5079962;28;20040;-60
2022/11/20 01:02:00;;;;;;;16.63;7.88;;;;;;;;;;5080083;28;20039;-60
2022/11/20 01:04:26;;;;;;;13.15;7.32;;;;;;;;;;5074063;28;20098;-58
2022/11/20 01:06:52;;;;;;;13.40;7.60;;;;;;;;;;5073575;28;20043;-59
2022/11/20 01:09:18;;;;;;;13.32;7.72;;;;;;;;;;5072343;28;20036;-59
2022/11/20 01:11:45;;;;;;;13.40;7.65;;;;;;;;;;5074023;28;20183;-59
2022/11/20 01:14:12;;;;;;;14.38;8.68;;;;;;;;;;5096335;22;20054;-65
2022/11/20 01:16:40;;;;;;;14.32;8.20;;;;;;;;;;5031825;28;20056;-65
2022/11/20 01:19:07;;;;;;;14.00;7.78;;;;;;;;;;5020490;28;20092;-65
2022/11/20 01:21:35;;;;;;;15.85;9.10;;;;;;;;;;5024353;28;20045;-63
2022/11/20 01:24:01;;;;;;;12.70;7.45;;;;;;;;;;5024155;28;20141;-63
2022/11/20 01:26:31;;;;;;;15.63;8.57;;;;;;;;;;5027569;28;20030;-63
2022/11/20 01:28:58;;;;;;;14.10;7.70;;;;;;;;;;5025860;28;20120;-62
2022/11/20 01:31:31;;;;;;;14.38;8.23;;;;;;;;;;5014562;28;20077;-63
2022/11/20 01:33:58;;;;;;;16.83;9.15;;;;;;;;;;5012092;28;20037;-63
2022/11/20 01:36:25;;;;;;;14.18;7.85;;;;;;;;;;5032283;28;20103;-63
2022/11/20 01:38:53;;;;;;;14.25;8.43;;;;;;;;;;5035195;28;20048;-63
2022/11/20 01:44:04;;;;;;;14.95;8.30;;;;;;;;;;5013450;28;20045;-62
2022/11/20 01:46:31;;;;;;;14.93;9.10;;;;;;;;;;5032134;28;20112;-62
2022/11/20 01:49:03;;;;;;;13.35;7.70;;;;;;;;;;5031384;28;20037;-63
2022/11/20 01:51:32;;;;;;;13.95;8.82;;;;;;;;;;5032091;28;20029;-63
2022/11/20 01:54:01;;;;;;;12.75;7.78;;;;;;;;;;5028844;28;20399;-63
2022/11/20 01:56:27;;;;;;;14.50;7.97;;;;;;;;;;5032006;28;20037;-63
2022/11/20 01:58:56;;;;;;;15.13;7.95;;;;;;;;;;5030924;28;20074;-62
2022/11/20 02:01:22;;;;;;;14.98;8.57;;;;;;;;;;5031421;28;20037;-63
2022/11/20 02:03:48;;;;;;;14.48;8.48;;;;;;;;;;5031971;28;20053;-63
2022/11/20 02:06:21;;;;;;;15.50;8.82;;;;;;;;;;5026306;28;20029;-64
2022/11/20 02:08:47;;;;;;;13.77;8.85;;;;;;;;;;5030441;28;20038;-63
2022/11/20 02:11:13;;;;;;;17.98;9.23;;;;;;;;;;5013613;28;20042;-63
2022/11/20 02:13:43;;;;;;;16.52;10.02;;;;;;;;;;5013422;28;20102;-63
2022/11/20 02:16:18;;;;;;;14.43;9.15;;;;;;;;;;5041729;28;20033;-63
2022/11/20 02:18:44;;;;;;;14.30;9.18;;;;;;;;;;5035323;28;20120;-63
2022/11/20 02:21:23;;;;;;;16.15;9.57;;;;;;;;;;5038032;28;20048;-63
2022/11/20 02:24:01;;;;;;;15.82;8.60;;;;;;;;;;5018193;28;20037;-63
2022/11/20 02:26:29;;;;;;;18.30;10.20;;;;;;;;;;5040788;28;20041;-63
2022/11/20 02:28:55;;;;;;;14.48;8.45;;;;;;;;;;5025692;28;20037;-63
2022/11/20 02:31:21;;;;;;;17.20;10.40;;;;;;;;;;5041051;28;20498;-63
2022/11/20 02:33:47;;;;;;;15.52;8.57;;;;;;;;;;5042237;28;20069;-63
2022/11/20 02:36:15;;;;;;;17.92;9.25;;;;;;;;;;5036163;28;20064;-63
2022/11/20 02:38:42;;;;;;;16.38;9.07;;;;;;;;;;5038213;28;20083;-65
2022/11/20 02:41:08;;;;;;;15.85;9.00;;;;;;;;;;5043347;28;20041;-63
2022/11/20 02:43:33;;;;;;;15.45;8.73;;;;;;;;;;5032246;28;20622;-63
2022/11/20 02:45:59;;;;;;;16.77;9.38;;;;;;;;;;5013557;28;20037;-63
2022/11/20 02:48:25;;;;;;;13.98;7.93;;;;;;;;;;5029955;28;20414;-63
2022/11/20 02:50:51;;;;;;;14.95;8.43;;;;;;;;;;5029051;28;20045;-63
2022/11/20 02:53:17;;;;;;;16.48;8.82;;;;;;;;;;5038139;28;20029;-63
2022/11/20 02:55:43;;;;;;;13.77;7.68;;;;;;;;;;5025525;28;20410;-63
2022/11/20 02:58:09;;;;;;;13.60;8.27;;;;;;;;;;5042266;28;20032;-63
2022/11/20 03:00:36;;;;;;;16.75;9.40;;;;;;;;;;5039981;28;20029;-63
2022/11/20 03:03:02;;;;;;;15.13;8.57;;;;;;;;;;5033240;28;20037;-63
2022/11/20 03:05:28;;;;;;;15.00;9.13;;;;;;;;;;5039569;28;20046;-63
2022/11/20 03:07:55;;;;;;;15.55;8.82;;;;;;;;;;5014695;28;20462;-63
2022/11/20 03:10:21;;;;;;;17.70;9.68;;;;;;;;;;5027972;28;20048;-63
2022/11/20 03:12:47;;;;;;;15.88;9.52;;;;;;;;;;5039503;28;20108;-63
2022/11/20 03:15:13;;;;;;;14.38;8.27;;;;;;;;;;5036358;28;20043;-63
2022/11/20 03:17:39;;;;;;;13.35;8.15;;;;;;;;;;5033097;28;20136;-63
2022/11/20 03:20:05;;;;;;;14.55;7.90;;;;;;;;;;5034317;28;20116;-63
2022/11/20 03:22:31;;;;;;;14.98;8.63;;;;;;;;;;5034450;28;20103;-63
2022/11/20 03:24:57;;;;;;;14.05;9.07;;;;;;;;;;5036394;28;20541;-63
2022/11/20 03:27:23;;;;;;;15.63;9.10;;;;;;;;;;5039736;28;20045;-63
2022/11/20 03:29:49;;;;;;;15.05;8.88;;;;;;;;;;5027980;28;20485;-63
2022/11/20 03:32:15;;;;;;;14.88;8.30;;;;;;;;;;5035695;28;20045;-63
2022/11/20 03:34:41;;;;;;;14.63;8.70;;;;;;;;;;5029691;28;20044;-63
2022/11/20 03:37:07;;;;;;;16.55;9.20;;;;;;;;;;5015734;28;20073;-63
2022/11/20 03:39:33;;;;;;;14.73;8.07;;;;;;;;;;5033164;28;20079;-63
2022/11/20 03:41:59;;;;;;;16.27;8.50;;;;;;;;;;5035924;28;20439;-63
2022/11/20 03:44:25;;;;;;;14.63;8.27;;;;;;;;;;5032847;28;20030;-63
2022/11/20 03:46:51;;;;;;;15.85;8.85;;;;;;;;;;5014667;28;20087;-63
2022/11/20 03:49:17;;;;;;;13.95;8.75;;;;;;;;;;5039265;28;20104;-63
2022/11/20 03:51:43;;;;;;;14.65;8.88;;;;;;;;;;5044804;28;20127;-63
2022/11/20 03:54:09;;;;;;;16.08;8.05;;;;;;;;;;5043334;28;20037;-63
2022/11/20 03:56:36;;;;;;;14.15;7.88;;;;;;;;;;5030560;28;20033;-63
2022/11/20 03:59:03;;;;;;;15.57;8.25;;;;;;;;;;5028453;28;20127;-63
2022/11/20 04:01:31;;;;;;;14.10;8.63;;;;;;;;;;5027869;28;20571;-63
2022/11/20 04:03:57;;;;;;;13.43;8.27;;;;;;;;;;5028500;28;20120;-63
2022/11/20 04:06:24;;;;;;;14.98;8.35;;;;;;;;;;5029580;28;20037;-63
2022/11/20 04:08:50;;;;;;;16.25;9.70;;;;;;;;;;5028934;28;20406;-63
2022/11/20 04:11:19;;;;;;;15.25;9.82;;;;;;;;;;5029129;28;20115;-63
2022/11/20 04:13:49;;;;;;;16.25;8.48;;;;;;;;;;5026364;28;20045;-63
2022/11/20 04:16:15;;;;;;;15.02;8.10;;;;;;;;;;5036256;28;20418;-63
2022/11/20 04:18:41;;;;;;;15.13;8.07;;;;;;;;;;5030603;28;20041;-63
2022/11/20 04:21:07;;;;;;;12.20;6.85;;;;;;;;;;5037246;28;20063;-63
2022/11/20 04:23:33;;;;;;;15.02;8.30;;;;;;;;;;5015606;28;20042;-63
2022/11/20 04:26:04;;;;;;;15.55;7.93;;;;;;;;;;5036216;28;20041;-63
2022/11/20 04:28:30;;;;;;;15.80;8.02;;;;;;;;;;5008687;28;20200;-63
2022/11/20 04:31:01;;;;;;;15.13;8.30;;;;;;;;;;5039017;28;20052;-63
2022/11/20 04:33:27;;;;;;;14.65;8.45;;;;;;;;;;5013476;28;20463;-63
2022/11/20 04:35:53;;;;;;;13.05;7.65;;;;;;;;;;5039949;28;20025;-63
2022/11/20 04:38:19;;;;;;;13.45;7.88;;;;;;;;;;5029281;28;20402;-63
2022/11/20 04:40:45;;;;;;;14.75;8.07;;;;;;;;;;5026719;28;20038;-63
2022/11/20 04:43:11;;;;;;;13.38;8.23;;;;;;;;;;5029882;28;20456;-63
2022/11/20 04:45:37;;;;;;;14.65;9.15;;;;;;;;;;5039424;28;20041;-62
2022/11/20 04:48:03;;;;;;;15.95;7.70;;;;;;;;;;5020630;28;20044;-63
2022/11/20 04:50:29;;;;;;;14.27;8.18;;;;;;;;;;5034278;28;20042;-62
2022/11/20 04:52:55;;;;;;;15.68;8.52;;;;;;;;;;5017542;28;20044;-63
2022/11/20 04:55:21;;;;;;;14.85;8.57;;;;;;;;;;5033249;28;20372;-63
2022/11/20 04:57:50;;;;;;;13.00;8.00;;;;;;;;;;5035143;28;20041;-63
2022/11/20 05:00:16;;;;;;;13.80;8.48;;;;;;;;;;5029705;28;20045;-63
2022/11/20 05:02:42;;;;;;;13.57;7.57;;;;;;;;;;5039394;28;20037;-62
2022/11/20 05:05:08;;;;;;;11.68;7.13;;;;;;;;;;5032728;28;20049;-63
2022/11/20 05:07:34;;;;;;;13.60;7.70;;;;;;;;;;5031388;28;20048;-62
2022/11/20 05:10:00;;;;;;;12.57;7.30;;;;;;;;;;5030225;28;20029;-62
2022/11/20 05:12:27;;;;;;;13.90;7.90;;;;;;;;;;5029216;28;20037;-62
2022/11/20 05:14:53;;;;;;;15.50;8.18;;;;;;;;;;5030509;28;20037;-62
2022/11/20 05:17:19;;;;;;;13.65;7.50;;;;;;;;;;5031700;28;20037;-62
2022/11/20 05:19:45;;;;;;;15.15;8.00;;;;;;;;;;5033396;28;20041;-63
2022/11/20 05:22:11;;;;;;;12.98;7.63;;;;;;;;;;5029834;28;20453;-63
2022/11/20 05:24:37;;;;;;;14.13;8.00;;;;;;;;;;5038787;28;20071;-63
2022/11/20 05:27:03;;;;;;;12.95;8.43;;;;;;;;;;5019803;28;20499;-62
2022/11/20 05:29:29;;;;;;;13.45;7.85;;;;;;;;;;5033125;28;20402;-62
2022/11/20 05:31:55;;;;;;;15.57;8.27;;;;;;;;;;5037164;28;20041;-62
2022/11/20 05:34:21;;;;;;;12.68;7.78;;;;;;;;;;5027681;28;20033;-62
2022/11/20 05:36:47;;;;;;;13.20;7.95;;;;;;;;;;5031685;28;20414;-63
2022/11/20 05:39:13;;;;;;;15.68;7.90;;;;;;;;;;5012560;28;20107;-63
2022/11/20 05:41:39;;;;;;;14.15;8.27;;;;;;;;;;5032819;28;20045;-62
2022/11/20 05:44:05;;;;;;;13.50;8.32;;;;;;;;;;5033464;28;20152;-62
2022/11/20 05:46:32;;;;;;;14.48;7.47;;;;;;;;;;5038512;28;20517;-62
2022/11/20 05:48:58;;;;;;;13.93;7.80;;;;;;;;;;5042758;28;20529;-62
2022/11/20 05:51:24;;;;;;;13.93;8.30;;;;;;;;;;5031887;28;20048;-62
2022/11/20 05:53:50;;;;;;;15.30;7.90;;;;;;;;;;5032030;28;20029;-62
2022/11/20 05:56:18;;;;;;;15.27;8.00;;;;;;;;;;5014109;28;20475;-63
2022/11/20 05:58:44;;;;;;;14.55;8.18;;;;;;;;;;5013616;28;20095;-62
2022/11/20 06:01:12;;;;;;;13.68;8.57;;;;;;;;;;5031192;28;20053;-62
2022/11/20 06:03:38;;;;;;;15.38;7.88;;;;;;;;;;5030462;28;20061;-62
2022/11/20 06:06:05;;;;;;;15.10;9.30;;;;;;;;;;5030846;28;20041;-62
2022/11/20 06:08:31;;;;;;;17.67;9.32;;;;;;;;;;5029972;28;20037;-62
2022/11/20 06:10:57;;;;;;;15.10;8.73;;;;;;;;;;5027292;28;20477;-63
2022/11/20 06:13:24;;;;;;;14.43;8.30;;;;;;;;;;5030029;28;20112;-63
2022/11/20 06:15:53;;;;;;;15.38;8.25;;;;;;;;;;5032263;28;20033;-63
2022/11/20 06:18:19;;;;;;;13.93;8.45;;;;;;;;;;5035870;28;20067;-63
2022/11/20 06:20:46;;;;;;;13.63;7.70;;;;;;;;;;5022239;28;20567;-63
2022/11/20 06:23:13;;;;;;;13.40;7.80;;;;;;;;;;5033909;28;20042;-63
2022/11/20 06:25:39;;;;;;;17.08;8.85;;;;;;;;;;5030767;28;20060;-63
2022/11/20 06:28:05;;;;;;;16.35;10.00;;;;;;;;;;5030574;28;20391;-63
2022/11/20 06:30:31;;;;;;;13.73;8.40;;;;;;;;;;5035406;28;20037;-63
2022/11/20 06:32:57;;;;;;;17.42;9.30;;;;;;;;;;5020553;28;20040;-63
2022/11/20 06:35:23;;;;;;;15.70;9.18;;;;;;;;;;5027710;28;20029;-63
2022/11/20 06:37:49;;;;;;;17.85;9.90;;;;;;;;;;5036884;28;20119;-63
2022/11/20 06:40:15;;;;;;;17.80;9.35;;;;;;;;;;5030895;28;20041;-63
2022/11/20 06:42:41;;;;;;;16.45;9.15;;;;;;;;;;5037188;28;20045;-63
2022/11/20 06:45:08;;;;;;;16.05;8.80;;;;;;;;;;5032194;28;20372;-63
2022/11/20 06:47:34;;;;;;;18.20;9.73;;;;;;;;;;5024801;28;20033;-63
2022/11/20 06:50:00;;;;;;;18.63;9.68;;;;;;;;;;5034626;28;20056;-63
2022/11/20 06:52:26;;;;;;;15.82;9.23;;;;;;;;;;5037017;28;20033;-63
2022/11/20 06:54:52;;;;;;;17.38;9.75;;;;;;;;;;5033705;28;20033;-63
2022/11/20 06:57:18;;;;;;;16.35;10.02;;;;;;;;;;5010058;28;20076;-63
2022/11/20 06:59:44;;;;;;;19.10;10.60;;;;;;;;;;5035578;28;20509;-63
2022/11/20 07:02:11;;;;;;;18.92;9.88;;;;;;;;;;5024685;28;20072;-63
2022/11/20 07:04:37;;;;;;;17.13;9.80;;;;;;;;;;5029478;28;20042;-63
2022/11/20 07:07:03;;;;;;;18.52;10.20;;;;;;;;;;5036024;28;20564;-63
2022/11/20 07:09:29;;;;;;;18.20;10.95;;;;;;;;;;5030796;28;20041;-63
2022/11/20 07:11:55;;;;;;;16.13;10.15;;;;;;;;;;5031817;28;20033;-63
2022/11/20 07:14:21;;;;;;;18.23;9.32;;;;;;;;;;5099655;22;20048;-61
2022/11/20 07:16:47;;;;;;;18.77;11.07;;;;;;;;;;5049815;28;20045;-60
2022/11/20 07:19:13;;;;;;;17.45;10.23;;;;;;;;;;5050416;28;20470;-60
2022/11/20 07:21:39;;;;;;;18.17;10.57;;;;;;;;;;5063418;28;20068;-61
2022/11/20 07:24:05;;;;;;;20.80;11.32;;;;;;;;;;5052139;28;20149;-60
2022/11/20 07:26:31;;;;;;;16.00;9.50;;;;;;;;;;5053032;28;20041;-61
2022/11/20 07:28:57;;;;;;;16.98;10.27;;;;;;;;;;5059164;28;20033;-61
2022/11/20 07:31:23;;;;;;;17.05;9.63;;;;;;;;;;5056283;28;20371;-60
2022/11/20 07:33:49;;;;;;;18.85;10.50;;;;;;;;;;5046312;28;20041;-60
2022/11/20 07:36:15;;;;;;;17.42;9.80;;;;;;;;;;5054199;28;20035;-60
2022/11/20 07:38:41;;;;;;;17.05;10.10;;;;;;;;;;5051862;28;20032;-60
2022/11/20 07:41:07;;;;;;;16.50;9.65;;;;;;;;;;5050888;28;20600;-60
2022/11/20 07:43:33;;;;;;;16.85;9.30;;;;;;;;;;5043457;28;20090;-61
2022/11/20 07:46:00;;;;;;;16.75;10.10;;;;;;;;;;5036494;28;20499;-60
2022/11/20 07:48:26;;;;;;;16.23;9.80;;;;;;;;;;5042102;28;20116;-60
2022/11/20 07:50:56;;;;;;;17.42;11.02;;;;;;;;;;5046687;28;20041;-60
2022/11/20 07:53:22;;;;;;;17.08;10.10;;;;;;;;;;5054965;28;20093;-59
2022/11/20 07:55:48;;;;;;;17.55;10.82;;;;;;;;;;5050926;28;20052;-59
2022/11/20 07:58:14;;;;;;;18.00;10.13;;;;;;;;;;5050334;28;20075;-60
2022/11/20 08:00:41;;;;;;;18.17;10.93;;;;;;;;;;5048467;28;20140;-60
2022/11/20 08:03:07;;;;;;;19.40;11.50;;;;;;;;;;5049645;28;20438;-60
2022/11/20 08:05:33;;;;;;;22.45;13.57;;;;;;;;;;5029515;28;20040;-59
2022/11/20 08:08:00;;;;;;;19.15;11.32;;;;;;;;;;5040349;28;20044;-60
2022/11/20 08:10:26;;;;;;;18.95;11.00;;;;;;;;;;5033009;28;20048;-60
2022/11/20 08:15:38;;;;;;;18.83;11.23;;;;;;;;;;5060869;28;20446;-60
2022/11/20 08:18:05;;;;;;;19.83;10.98;;;;;;;;;;5036344;28;20049;-59
2022/11/20 08:20:31;;;;;;;18.80;11.73;;;;;;;;;;5056874;28;20028;-60
2022/11/20 08:23:05;;;;;;;21.75;11.98;;;;;;;;;;5048174;28;20087;-60
2022/11/20 08:25:32;;;;;;;19.23;11.02;;;;;;;;;;5057308;28;20124;-60
2022/11/20 08:27:58;;;;;;;21.02;11.60;;;;;;;;;;5043422;28;20036;-60
2022/11/20 08:30:25;;;;;;;18.83;11.85;;;;;;;;;;5038485;28;20048;-61
2022/11/20 08:32:51;;;;;;;19.33;10.82;;;;;;;;;;5064000;28;20028;-60
2022/11/20 08:35:17;;;;;;;19.15;11.05;;;;;;;;;;5054416;28;20040;-60
2022/11/20 08:37:46;;;;;;;21.42;12.43;;;;;;;;;;5051196;28;20042;-60
2022/11/20 08:40:12;;;;;;;19.55;11.85;;;;;;;;;;5031591;28;20446;-60
2022/11/20 08:42:45;;;;;;;17.73;11.00;;;;;;;;;;5056611;28;20045;-60
2022/11/20 08:45:11;;;;;;;18.60;11.35;;;;;;;;;;5040911;28;20777;-61
2022/11/20 08:47:37;;;;;;;21.48;10.68;;;;;;;;;;5026451;28;20033;-61
2022/11/20 08:50:03;;;;;;;17.00;10.38;;;;;;;;;;5040508;28;20108;-61
2022/11/20 08:52:29;;;;;;;17.42;10.50;;;;;;;;;;5045251;28;20057;-61
2022/11/20 08:54:55;;;;;;;18.48;11.10;;;;;;;;;;5041877;28;20047;-60
2022/11/20 08:57:21;;;;;;;14.88;9.48;;;;;;;;;;5044860;28;20033;-60
2022/11/20 08:59:47;;;;;;;16.13;9.77;;;;;;;;;;5049054;28;20115;-60
2022/11/20 09:02:13;;;;;;;18.77;9.73;;;;;;;;;;5050441;28;20664;-60
2022/11/20 09:04:39;;;;;;;16.27;9.73;;;;;;;;;;5051554;28;20533;-60
2022/11/20 09:07:05;;;;;;;15.77;9.80;;;;;;;;;;5052208;28;20562;-59
2022/11/20 09:09:32;;;;;;;17.35;10.98;;;;;;;;;;5048109;28;20139;-61
2022/11/20 09:11:58;;;;;;;20.25;10.98;;;;;;;;;;5057247;28;20037;-60
2022/11/20 09:14:28;;;;;;;18.40;10.73;;;;;;;;;;5056040;28;20037;-61
2022/11/20 09:16:55;;;;;;;19.40;10.93;;;;;;;;;;5051066;28;20045;-60
2022/11/20 09:19:21;;;;;;;18.10;10.82;;;;;;;;;;5035596;28;20227;-61
2022/11/20 09:21:47;;;;;;;17.98;10.50;;;;;;;;;;5057619;28;20040;-60
2022/11/20 09:24:13;;;;;;;16.20;9.93;;;;;;;;;;5055691;28;20037;-60
2022/11/20 09:26:39;;;;;;;15.10;10.00;;;;;;;;;;5052428;28;20049;-60
2022/11/20 09:29:05;;;;;;;15.75;9.52;;;;;;;;;;5065645;28;20757;-61
2022/11/20 09:31:31;;;;;;;16.15;9.88;;;;;;;;;;5060978;28;20510;-61
2022/11/20 09:33:58;;;;;;;16.50;9.98;;;;;;;;;;5049831;28;20047;-61
2022/11/20 09:36:24;;;;;;;14.95;9.38;;;;;;;;;;5050797;28;20561;-61
2022/11/20 09:38:50;;;;;;;15.50;9.77;;;;;;;;;;5059405;28;20147;-60
2022/11/20 09:41:21;;;;;;;16.35;9.82;;;;;;;;;;5059678;28;20068;-61
2022/11/20 09:43:58;;;;;;;14.80;9.55;;;;;;;;;;5061754;28;20457;-61
2022/11/20 09:46:29;;;;;;;15.45;9.10;;;;;;;;;;5044645;28;20514;-61
2022/11/20 09:48:58;;;;;;;15.60;9.20;;;;;;;;;;5054311;28;20409;-60
2022/11/20 09:51:36;;;;;;;14.52;8.68;;;;;;;;;;5051431;28;20047;-61
2022/11/20 09:54:13;;;;;;;14.55;9.27;;;;;;;;;;5057911;28;20040;-60
2022/11/20 09:56:41;;;;;;;15.38;9.00;;;;;;;;;;5055293;28;20048;-61
2022/11/20 09:59:08;;;;;;;17.05;8.68;;;;;;;;;;5061877;28;20387;-60
2022/11/20 10:01:35;;;;;;;15.35;9.10;;;;;;;;;;5048520;28;20044;-60
2022/11/20 10:04:17;;;;;;;14.05;8.38;;;;;;;;;;5041721;28;20040;-61
2022/11/20 10:07:05;;;;;;;17.38;9.07;;;;;;;;;;5056015;28;20091;-60
2022/11/20 10:09:35;;;;;;;14.63;8.65;;;;;;;;;;5048013;28;20033;-61
2022/11/20 10:12:20;;;;;;;12.27;7.45;;;;;;;;;;5056115;28;20068;-60
2022/11/20 10:15:02;;;;;;;13.80;8.07;;;;;;;;;;5041669;28;20048;-60
2022/11/20 10:17:31;;;;;;;12.32;7.65;;;;;;;;;;5041394;28;20044;-57
2022/11/20 10:20:15;;;;;;;14.85;8.23;;;;;;;;;;5045300;28;20083;-60
2022/11/20 10:22:48;;;;;;;12.70;8.45;;;;;;;;;;5027999;28;20041;-60
2022/11/20 10:25:15;;;;;;;15.60;10.30;;;;;;;;;;5043519;28;20099;-60
2022/11/20 10:28:00;;;;;;;12.45;7.80;;;;;;;;;;5036520;28;20045;-60
2022/11/20 10:30:26;;;;;;;13.75;8.52;;;;;;;;;;5025707;28;20036;-60
2022/11/20 10:32:55;;;;;;;13.52;8.52;;;;;;;;;;5045578;28;20041;-60
2022/11/20 10:35:30;;;;;;;15.13;8.07;;;;;;;;;;5036361;28;20045;-60
2022/11/20 10:37:58;;;;;;;15.13;8.65;;;;;;;;;;5051325;28;20447;-60
2022/11/20 10:40:24;;;;;;;12.95;8.15;;;;;;;;;;5046613;28;20052;-60
2022/11/20 10:42:56;;;;;;;14.35;8.77;;;;;;;;;;5066643;28;20041;-60
2022/11/20 10:45:25;;;;;;;12.48;7.57;;;;;;;;;;5053901;28;20775;-60
2022/11/20 10:48:05;;;;;;;15.70;8.90;;;;;;;;;;5048213;28;20040;-57
2022/11/20 10:50:32;;;;;;;12.30;7.93;;;;;;;;;;5045448;28;20048;-60
2022/11/20 10:53:05;;;;;;;12.93;7.65;;;;;;;;;;5057388;28;20033;-59
2022/11/20 10:55:47;;;;;;;11.20;6.93;;;;;;;;;;5047588;28;20083;-59
2022/11/20 10:58:16;;;;;;;13.00;7.20;;;;;;;;;;5049244;28;20090;-58
2022/11/20 11:00:42;;;;;;;12.30;7.15;;;;;;;;;;5046329;28;20490;-59
2022/11/20 11:03:26;;;;;;;10.80;6.90;;;;;;;;;;5042125;28;20041;-58
2022/11/20 11:06:10;;;;;;;12.07;7.63;;;;;;;;;;5062292;28;20037;-59
2022/11/20 11:08:40;;;;;;;10.15;6.82;;;;;;;;;;5024480;28;20047;-59
2022/11/20 11:11:23;;;;;;;11.73;7.05;;;;;;;;;;5056518;28;20128;-60
2022/11/20 11:13:49;;;;;;;11.40;6.43;;;;;;;;;;5051663;28;20174;-58
2022/11/20 11:16:23;;;;;;;9.20;6.03;;;;;;;;;;5052533;28;20092;-58
2022/11/20 11:18:50;;;;;;;9.80;6.18;;;;;;;;;;5045842;28;20098;-59
2022/11/20 11:21:22;;;;;;;10.82;5.93;;;;;;;;;;5037807;28;20044;-59
2022/11/20 11:23:57;;;;;;;9.93;5.75;;;;;;;;;;5014645;28;20106;-60
2022/11/20 11:26:24;;;;;;;10.70;6.63;;;;;;;;;;5014030;28;20128;-60
2022/11/20 11:28:57;;;;;;;11.00;6.28;;;;;;;;;;5020807;28;20036;-59
2022/11/20 11:31:24;;;;;;;9.80;5.45;;;;;;;;;;5033054;28;20033;-59
2022/11/20 11:33:50;;;;;;;9.05;5.70;;;;;;;;;;5036957;28;20071;-59
2022/11/20 11:36:22;;;;;;;8.18;4.80;;;;;;;;;;5035302;28;20065;-59
2022/11/20 11:38:51;;;;;;;7.85;4.32;;;;;;;;;;5039475;28;20045;-59
2022/11/20 11:41:19;;;;;;;10.50;5.28;;;;;;;;;;5032809;28;20037;-60
2022/11/20 11:46:38;;;;;;;8.95;5.18;;;;;;;;;;5038587;28;20048;-60
2022/11/20 11:49:11;;;;;;;9.10;5.03;;;;;;;;;;5057167;28;20041;-60
2022/11/20 11:51:53;;;;;;;9.35;4.70;;;;;;;;;;5050341;28;20037;-59
2022/11/20 11:54:28;;;;;;;9.30;6.70;;;;;;;;;;5048542;28;20037;-60
2022/11/20 11:56:54;;;;;;;8.85;5.75;;;;;;;;;;5037699;28;20474;-59
2022/11/20 11:59:28;;;;;;;8.73;4.90;;;;;;;;;;5047391;28;20079;-58
2022/11/20 12:02:03;;;;;;;9.50;5.13;;;;;;;;;;5052943;28;20044;-58
2022/11/20 12:04:38;;;;;;;8.65;5.50;;;;;;;;;;5044798;28;20115;-57
2022/11/20 12:07:20;;;;;;;8.98;4.63;;;;;;;;;;5038360;28;20159;-59
2022/11/20 12:09:49;;;;;;;9.73;5.40;;;;;;;;;;5051510;28;20088;-58
2022/11/20 12:12:25;;;;;;;8.60;4.75;;;;;;;;;;5053000;28;20033;-59
2022/11/20 12:14:54;;;;;;;8.68;5.32;;;;;;;;;;5046314;28;20378;-58
2022/11/20 12:17:20;;;;;;;11.50;5.18;;;;;;;;;;5048410;28;20037;-59
2022/11/20 12:19:46;;;;;;;9.10;5.40;;;;;;;;;;5055373;28;20111;-59
2022/11/20 12:22:28;;;;;;;10.38;5.85;;;;;;;;;;5059412;28;20060;-58
2022/11/20 12:24:57;;;;;;;12.20;5.80;;;;;;;;;;5053158;28;20044;-56
2022/11/20 12:27:41;;;;;;;9.25;5.03;;;;;;;;;;5052005;28;20099;-58
2022/11/20 12:30:18;;;;;;;8.77;4.95;;;;;;;;;;5052780;28;20041;-57
2022/11/20 12:32:43;;;;;;;9.02;5.22;;;;;;;;;;5051663;28;20076;-56
2022/11/20 12:35:22;;;;;;;9.27;5.00;;;;;;;;;;5040053;28;20069;-57
2022/11/20 12:38:07;;;;;;;9.57;4.88;;;;;;;;;;5038714;28;21659;-57
2022/11/20 12:40:33;;;;;;;12.18;6.15;;;;;;;;;;5046117;28;20072;-58
2022/11/20 12:46:06;;;;;;;9.75;5.78;;;;;;;;;;5058279;28;20395;-58
2022/11/20 12:48:35;;;;;;;9.75;5.53;;;;;;;;;;5037954;28;20080;-57
2022/11/20 12:51:14;;;;;;;12.13;6.10;;;;;;;;;;5027703;28;20049;-58
2022/11/20 12:53:55;;;;;;;10.57;5.70;;;;;;;;;;5057740;28;20120;-58
2022/11/20 12:56:24;;;;;;;9.85;5.40;;;;;;;;;;5061582;28;20112;-58
2022/11/20 12:59:08;;;;;;;11.65;6.13;;;;;;;;;;5058430;28;20394;-57
2022/11/20 13:01:43;;;;;;;13.10;8.33;;;;;;;;;;5061414;28;20037;-58
2022/11/20 13:04:17;;;;;;;11.23;7.28;;;;;;;;;;5061072;28;20044;-57
2022/11/20 13:06:44;;;;;;;10.98;6.00;;;;;;;;;;5040546;28;20467;-58
2022/11/20 13:09:13;;;;;;;11.82;6.80;;;;;;;;;;5058537;28;20497;-58
2022/11/20 13:11:42;;;;;;;10.13;6.50;;;;;;;;;;5044302;28;20056;-58
2022/11/20 13:14:13;;;;;;;11.35;6.20;;;;;;;;;;5120895;22;20114;-56
2022/11/20 13:16:50;;;;;;;13.52;9.85;;;;;;;;;;5075868;28;20049;-57
2022/11/20 13:19:17;;;;;;;10.10;6.68;;;;;;;;;;5070178;28;20040;-58
2022/11/20 13:21:54;;;;;;;9.20;5.60;;;;;;;;;;5074711;28;20048;-54
2022/11/20 13:24:26;;;;;;;9.90;6.50;;;;;;;;;;5073900;28;20048;-55
2022/11/20 13:27:10;;;;;;;10.95;7.32;;;;;;;;;;5071862;28;20037;-55
2022/11/20 13:29:37;;;;;;;10.75;6.85;;;;;;;;;;5078071;28;20044;-56
2022/11/20 13:32:07;;;;;;;23.42;19.73;;;;;;;;;;5070818;28;20052;-55
2022/11/20 13:34:36;;;;;;;10.82;6.10;;;;;;;;;;5058447;28;20036;-55
2022/11/20 13:37:35;;;;;;;11.55;6.65;;;;;;;;;;5070055;28;20029;-51
2022/11/20 13:40:11;;;;;;;17.00;7.60;;;;;;;;;;5069448;28;20048;-58
2022/11/20 13:42:44;;;;;;;9.55;6.15;;;;;;;;;;5070057;28;20040;-55
2022/11/20 13:45:33;;;;;;;14.00;8.18;;;;;;;;;;5068049;28;20060;-53
2022/11/20 13:48:04;;;;;;;11.73;6.80;;;;;;;;;;5068486;28;20075;-56
2022/11/20 13:50:36;;;;;;;11.77;7.00;;;;;;;;;;5052381;28;20079;-56
2022/11/20 13:53:12;;;;;;;11.18;6.85;;;;;;;;;;5065494;28;20033;-54
2022/11/20 13:55:38;;;;;;;11.57;6.35;;;;;;;;;;5068124;28;20040;-57
2022/11/20 13:58:19;;;;;;;15.60;7.10;;;2.80;99.90;;;;;;5069967;28;20120;-49
2022/11/20 14:00:48;;;;;;;15.40;8.68;;;;;;;;;;5045737;28;20080;-51
2022/11/20 14:03:20;;;;;;;13.07;7.65;;;;;;;;;;5069092;28;20067;-50
2022/11/20 14:05:50;;;;;;;14.70;8.70;;;;;;;;;;5051878;28;20691;-50
2022/11/20 14:08:25;;;;;;;12.85;7.82;;;;;;;;;;5066648;28;20047;-52
2022/11/20 14:10:51;;;;;;;12.85;7.50;;;;;;;;;;5057700;28;20496;-51
2022/11/20 14:13:19;;;;;;;12.80;7.82;;;3.60;99.90;;;;;;5069978;28;20110;-53
2022/11/20 14:15:45;;;;;;;11.75;7.30;;;;;;;;;;5068013;28;20032;-51
2022/11/20 14:18:14;;;;;;;13.27;7.60;;;2.80;99.90;;;;;;5069044;28;20040;-52
2022/11/20 14:20:41;;;;;;;13.77;8.00;;;3.50;99.90;;;;;;5065942;28;20041;-51
2022/11/20 14:23:09;;;;;;;12.25;7.35;;;;;;;;;;5066196;28;20033;-50
2022/11/20 14:25:35;;;;;;;13.63;7.82;;;;;;;;;;5063917;28;20090;-53
2022/11/20 14:28:02;;;;;;;12.85;8.20;;;;;;;;;;5069501;28;20041;-51
2022/11/20 14:30:48;;;;;;;15.05;8.75;;;3.00;99.90;;;;;;5071230;28;20032;-56
2022/11/20 14:33:17;;;;;;;14.80;8.57;;;;;;;;;;5050736;28;20053;-56
2022/11/20 14:35:45;;;;;;;13.63;8.55;;;;;;;;;;5064979;28;20387;-54
2022/11/20 14:38:18;;;;;;;14.68;8.45;;;2.80;99.90;;;;;;5063399;28;20458;-54
2022/11/20 14:40:44;;;;;;;13.35;7.88;;;;;;;;;;5066500;28;20119;-54
2022/11/20 14:43:18;;;;;;;14.02;9.30;;;;;;;;;;5067308;28;20097;-54
2022/11/20 14:45:58;;;;;;;29.33;18.63;;;2.90;99.90;;;;;;5068885;28;20039;-55